Time;durP1;ratioP1;P1;durP2;ratioP2;P2;SDS_P1;SDS_P2;PMS_P1;PMS_P2;Temp;Humidity;BMP_temperature;BMP_pressure;BME280_temperature;BME280_humidity;BME280_pressure;Samples;Min_cycle;Max_cycle;Signal;HPM_P1;HPM_P2
2023/06/14 00:01:51;;;;;;;3.83;2.53;;;25.50;49.10;;;;;;5052942;28;20446;-73
2023/06/14 00:04:17;;;;;;;4.13;3.00;;;25.40;49.00;;;;;;5053212;28;20175;-74
2023/06/14 00:06:45;;;;;;;3.72;2.63;;;25.50;49.00;;;;;;5053031;28;20079;-74
2023/06/14 00:09:14;;;;;;;5.50;2.65;;;25.40;49.10;;;;;;5052527;28;20028;-74
2023/06/14 00:11:41;;;;;;;4.28;2.90;;;25.60;49.10;;;;;;5051258;28;20499;-74
2023/06/14 00:14:07;;;;;;;7.00;3.25;;;25.50;49.10;;;;;;5052374;28;20039;-74
2023/06/14 00:16:34;;;;;;;4.28;2.90;;;25.60;49.10;;;;;;5052725;28;20032;-74
2023/06/14 00:19:04;;;;;;;4.95;3.15;;;25.60;49.20;;;;;;5052589;28;20039;-74
2023/06/14 00:21:31;;;;;;;3.63;2.72;;;25.60;49.20;;;;;;5052144;28;20188;-74
2023/06/14 00:23:58;;;;;;;4.10;3.28;;;25.70;49.20;;;;;;5052032;28;20051;-74
2023/06/14 00:26:26;;;;;;;4.97;3.42;;;25.70;49.20;;;;;;5052233;28;20445;-74
2023/06/14 00:28:52;;;;;;;4.15;2.92;;;25.60;49.20;;;;;;5050963;28;20510;-74
2023/06/14 00:31:18;;;;;;;5.18;3.22;;;25.80;49.20;;;;;;5052542;28;20119;-74
2023/06/14 00:33:45;;;;;;;6.47;2.53;;;25.70;49.20;;;;;;5052631;28;20124;-74
2023/06/14 00:36:12;;;;;;;3.72;2.65;;;25.70;49.20;;;;;;5050970;28;20033;-74
2023/06/14 00:38:38;;;;;;;5.72;2.72;;;25.70;49.20;;;;;;5052081;28;20390;-74
2023/06/14 00:41:04;;;;;;;3.28;2.72;;;25.80;49.20;;;;;;5051710;28;20044;-74
2023/06/14 00:43:30;;;;;;;3.50;2.92;;;25.70;49.30;;;;;;5050219;28;20049;-74
2023/06/14 00:45:56;;;;;;;3.90;2.97;;;25.80;49.30;;;;;;5051693;28;20522;-74
2023/06/14 00:48:23;;;;;;;4.43;3.17;;;25.80;49.20;;;;;;5052218;28;20119;-74
2023/06/14 00:50:51;;;;;;;4.20;2.83;;;25.90;49.20;;;;;;5051829;28;20036;-74
2023/06/14 00:53:17;;;;;;;4.78;2.72;;;25.80;49.20;;;;;;5050437;28;20037;-74
2023/06/14 00:55:44;;;;;;;5.57;2.90;;;25.90;49.20;;;;;;5051775;28;20060;-73
2023/06/14 00:58:11;;;;;;;5.35;3.25;;;25.90;49.20;;;;;;5050855;28;20041;-74
2023/06/14 01:00:37;;;;;;;3.97;2.95;;;25.80;49.20;;;;;;5051715;28;20033;-74
2023/06/14 01:03:03;;;;;;;4.80;3.17;;;25.90;49.20;;;;;;5051620;28;20029;-74
2023/06/14 01:05:30;;;;;;;3.47;3.08;;;25.80;49.20;;;;;;5051288;28;20037;-74
2023/06/14 01:08:21;;;;;;;3.67;2.85;;;25.80;49.20;;;;;;5051489;28;20040;-74
2023/06/14 01:10:52;;;;;;;4.55;2.53;;;25.90;49.10;;;;;;5050697;28;20057;-73
2023/06/14 01:13:33;;;;;;;3.35;2.78;;;25.90;49.20;;;;;;5051574;28;20116;-74
2023/06/14 01:16:00;;;;;;;5.03;2.90;;;25.80;49.20;;;;;;5050173;28;20102;-74
2023/06/14 01:18:29;;;;;;;6.63;2.92;;;25.90;49.20;;;;;;5051567;28;20436;-73
2023/06/14 01:20:56;;;;;;;3.55;3.15;;;25.80;49.20;;;;;;5068753;28;20370;-74
2023/06/14 01:23:25;;;;;;;3.50;2.78;;;25.90;49.20;;;;;;5068839;28;20147;-73
2023/06/14 01:25:52;;;;;;;3.95;2.70;;;25.90;49.20;;;;;;5052222;28;20087;-74
2023/06/14 01:28:20;;;;;;;3.15;2.85;;;26.00;49.60;;;;;;5052386;28;20048;-74
2023/06/14 01:30:53;;;;;;;2.97;2.63;;;25.90;49.20;;;;;;5052452;28;20049;-74
2023/06/14 01:33:24;;;;;;;4.18;2.88;;;25.80;49.20;;;;;;5068334;28;20040;-73
2023/06/14 01:35:51;;;;;;;7.20;3.20;;;25.90;49.20;;;;;;5068897;28;20048;-74
2023/06/14 01:38:20;;;;;;;3.88;2.70;;;25.80;49.20;;;;;;5052281;28;20396;-72
2023/06/14 01:40:48;;;;;;;3.53;3.22;;;25.90;49.20;;;;;;5052287;28;20055;-73
2023/06/14 01:43:16;;;;;;;4.90;3.15;;;25.90;49.20;;;;;;5051840;28;20050;-74
2023/06/14 01:45:44;;;;;;;3.83;3.00;;;26.00;49.60;;;;;;5068817;28;20589;-74
2023/06/14 01:48:10;;;;;;;7.70;3.45;;;26.00;49.60;;;;;;5052054;28;20032;-74
2023/06/14 01:50:36;;;;;;;6.53;3.47;;;26.00;49.60;;;;;;5035574;28;20068;-74
2023/06/14 01:53:07;;;;;;;5.07;3.33;;;26.00;49.60;;;;;;5049651;28;20401;-74
2023/06/14 01:55:38;;;;;;;3.85;3.22;;;25.90;49.10;;;;;;5052768;28;20111;-74
2023/06/14 01:58:07;;;;;;;9.18;3.47;;;25.90;49.20;;;;;;5053722;28;20033;-74
2023/06/14 02:00:33;;;;;;;5.50;3.53;;;25.90;49.10;;;;;;5054261;28;20079;-74
2023/06/14 02:02:59;;;;;;;4.97;3.40;;;25.80;49.10;;;;;;5053990;28;20120;-74
2023/06/14 02:05:26;;;;;;;4.93;3.38;;;25.90;49.10;;;;;;5053712;28;20029;-74
2023/06/14 02:07:55;;;;;;;3.63;3.13;;;25.80;49.10;;;;;;5053668;28;20497;-74
2023/06/14 02:10:21;;;;;;;6.72;3.70;;;25.90;49.10;;;;;;5055390;28;20629;-74
2023/06/14 02:12:48;;;;;;;4.45;3.40;;;25.80;49.10;;;;;;5055711;28;20041;-74
2023/06/14 02:15:17;;;;;;;4.53;3.78;;;25.90;49.10;;;;;;5055608;28;20480;-74
2023/06/14 02:17:44;;;;;;;7.47;3.53;;;25.80;49.10;;;;;;5072313;28;20099;-73
2023/06/14 02:20:11;;;;;;;4.97;3.80;;;25.80;49.10;;;;;;5072495;28;20452;-74
2023/06/14 02:22:37;;;;;;;5.13;3.60;;;25.90;49.20;;;;;;5072135;28;20128;-74
2023/06/14 02:25:03;;;;;;;4.78;2.88;;;25.80;49.30;;;;;;5072118;28;20385;-74
2023/06/14 02:27:29;;;;;;;5.82;3.63;;;25.70;49.30;;;;;;5051792;28;20029;-73
2023/06/14 02:29:55;;;;;;;5.10;3.50;;;25.80;49.30;;;;;;5052196;28;20780;-73
2023/06/14 02:32:21;;;;;;;9.63;3.55;;;25.90;49.30;;;;;;5052086;28;20124;-74
2023/06/14 02:34:49;;;;;;;6.00;3.30;;;25.70;49.30;;;;;;5052020;28;20119;-74
2023/06/14 02:37:16;;;;;;;4.55;3.25;;;25.90;49.30;;;;;;5051760;28;20037;-74
2023/06/14 02:39:42;;;;;;;3.95;3.63;;;25.80;49.30;;;;;;5052303;28;20029;-74
2023/06/14 02:42:08;;;;;;;5.10;3.60;;;25.90;49.30;;;;;;5036878;28;20045;-74
2023/06/14 02:44:35;;;;;;;5.72;4.00;;;25.70;49.30;;;;;;5033552;28;20069;-74
2023/06/14 02:47:01;;;;;;;3.95;3.33;;;25.90;49.30;;;;;;5034357;28;20111;-74
2023/06/14 02:49:27;;;;;;;5.25;4.10;;;25.90;49.30;;;;;;5049545;28;20135;-74
2023/06/14 02:51:54;;;;;;;7.85;3.97;;;25.90;49.30;;;;;;5032817;28;20087;-74
2023/06/14 02:54:20;;;;;;;5.00;3.65;;;25.80;49.30;;;;;;5032870;28;20385;-74
2023/06/14 02:56:47;;;;;;;6.57;4.55;;;25.80;49.30;;;;;;5032927;28;20346;-74
2023/06/14 02:59:13;;;;;;;7.30;4.13;;;25.80;49.30;;;;;;5050008;28;20029;-74
2023/06/14 03:01:41;;;;;;;5.95;4.10;;;25.90;49.30;;;;;;5052650;28;20041;-74
2023/06/14 03:04:09;;;;;;;4.80;3.65;;;25.80;49.30;;;;;;5052441;28;20048;-74
2023/06/14 03:06:39;;;;;;;4.90;3.67;;;25.90;49.30;;;;;;5052179;28;20029;-74
2023/06/14 03:09:05;;;;;;;6.43;4.65;;;25.70;49.30;;;;;;5052319;28;20113;-74
2023/06/14 03:11:33;;;;;;;6.05;4.22;;;25.80;49.30;;;;;;5052601;28;20131;-74
2023/06/14 03:14:00;;;;;;;8.55;3.80;;;25.80;49.30;;;;;;5053711;28;20032;-74
2023/06/14 03:16:29;;;;;;;5.15;3.53;;;25.80;49.30;;;;;;5052599;28;20025;-74
2023/06/14 03:18:56;;;;;;;4.35;3.28;;;25.70;49.40;;;;;;5035879;28;20037;-74
2023/06/14 03:21:25;;;;;;;7.43;4.43;;;25.80;49.50;;;;;;5050739;28;20060;-74
2023/06/14 03:23:53;;;;;;;5.65;3.88;;;25.80;49.50;;;;;;5018183;28;20052;-74
2023/06/14 03:26:20;;;;;;;8.32;4.05;;;25.80;49.50;;;;;;5034650;28;20041;-74
2023/06/14 03:28:50;;;;;;;7.18;3.97;;;25.80;49.50;;;;;;5034500;28;20045;-74
2023/06/14 03:31:16;;;;;;;6.32;3.97;;;25.80;49.50;;;;;;5017988;28;20421;-74
2023/06/14 03:33:43;;;;;;;7.32;4.07;;;25.80;49.50;;;;;;5033963;28;20041;-74
2023/06/14 03:36:09;;;;;;;7.47;3.67;;;25.80;49.50;;;;;;5050641;28;20045;-74
2023/06/14 03:38:36;;;;;;;6.47;4.63;;;25.80;49.50;;;;;;5034228;28;20528;-74
2023/06/14 03:41:03;;;;;;;7.00;4.20;;;25.80;49.50;;;;;;5034126;28;20500;-74
2023/06/14 03:43:30;;;;;;;6.10;3.85;;;25.80;49.50;;;;;;5050809;28;20071;-74
2023/06/14 03:45:56;;;;;;;4.40;3.90;;;25.80;49.50;;;;;;5034097;28;20604;-74
2023/06/14 03:48:24;;;;;;;6.50;4.22;;;25.80;49.50;;;;;;5034148;28;20059;-74
2023/06/14 03:50:50;;;;;;;6.63;3.95;;;25.80;49.50;;;;;;5050553;28;20049;-74
2023/06/14 03:53:16;;;;;;;8.13;4.25;;;25.80;49.50;;;;;;5052697;28;20091;-74
2023/06/14 03:55:46;;;;;;;5.65;4.25;;;25.80;49.50;;;;;;5035735;28;20112;-74
2023/06/14 03:58:13;;;;;;;7.20;4.55;;;25.80;49.50;;;;;;5033478;28;20183;-74
2023/06/14 04:00:39;;;;;;;7.90;3.83;;;25.70;49.50;;;;;;5035674;28;20116;-74
2023/06/14 04:03:06;;;;;;;6.00;4.25;;;25.80;49.50;;;;;;5017170;28;20142;-74
2023/06/14 04:05:32;;;;;;;6.63;4.43;;;25.70;49.40;;;;;;5017194;28;20057;-74
2023/06/14 04:07:58;;;;;;;5.22;3.50;;;25.70;49.50;;;;;;5017151;28;20167;-74
2023/06/14 04:10:24;;;;;;;7.53;4.32;;;25.70;49.50;;;;;;5033668;28;20477;-74
2023/06/14 04:12:51;;;;;;;6.63;4.18;;;25.70;49.60;;;;;;5049916;28;20060;-74
2023/06/14 04:15:17;;;;;;;8.38;4.88;;;25.70;49.70;;;;;;5050232;28;20119;-74
2023/06/14 04:17:44;;;;;;;5.55;3.35;;;25.70;49.70;;;;;;5033443;28;20161;-74
2023/06/14 04:20:10;;;;;;;8.73;4.38;;;25.60;49.70;;;;;;5033478;28;20178;-74
2023/06/14 04:22:37;;;;;;;9.55;4.50;;;25.70;49.70;;;;;;5032678;28;20508;-74
2023/06/14 04:25:06;;;;;;;8.02;4.32;;;25.70;49.70;;;;;;5016928;28;20049;-74
2023/06/14 04:27:36;;;;;;;8.20;3.88;;;25.80;49.70;;;;;;5033156;28;20080;-74
2023/06/14 04:30:04;;;;;;;6.78;4.65;;;25.70;49.70;;;;;;5047758;28;20040;-74
2023/06/14 04:32:40;;;;;;;6.35;4.57;;;25.60;49.70;;;;;;5050877;28;20051;-74
2023/06/14 04:35:11;;;;;;;5.65;4.22;;;25.70;49.70;;;;;;5050681;28;20439;-74
2023/06/14 04:37:41;;;;;;;6.25;3.90;;;25.70;49.70;;;;;;5050934;28;20083;-74
2023/06/14 04:40:08;;;;;;;10.70;5.25;;;25.70;49.70;;;;;;5034579;28;20053;-74
2023/06/14 04:42:36;;;;;;;11.02;5.50;;;25.70;49.70;;;;;;5050784;28;20045;-74
2023/06/14 04:45:05;;;;;;;8.40;4.95;;;25.70;49.70;;;;;;5050768;28;20047;-74
2023/06/14 04:47:32;;;;;;;6.55;4.63;;;25.60;49.70;;;;;;5050673;28;20036;-74
2023/06/14 04:50:00;;;;;;;6.97;5.10;;;25.60;49.70;;;;;;5050968;28;20029;-74
2023/06/14 04:52:29;;;;;;;7.13;4.22;;;25.60;49.70;;;;;;5050610;28;20070;-74
2023/06/14 04:54:56;;;;;;;9.48;4.57;;;25.70;49.70;;;;;;5034172;28;20033;-74
2023/06/14 04:57:25;;;;;;;9.35;5.13;;;25.70;49.70;;;;;;5050589;28;20094;-74
2023/06/14 04:59:54;;;;;;;7.93;4.63;;;25.80;49.70;;;;;;5050805;28;20033;-74
2023/06/14 05:02:25;;;;;;;5.78;5.18;;;25.70;49.70;;;;;;5050431;28;20036;-74
2023/06/14 05:04:54;;;;;;;6.63;4.35;;;25.60;49.80;;;;;;5050359;28;20064;-74
2023/06/14 05:07:23;;;;;;;4.32;3.30;;;25.70;49.80;;;;;;5033293;28;20377;-74
2023/06/14 05:09:50;;;;;;;14.43;4.93;;;25.70;49.80;;;;;;5050128;28;20181;-74
2023/06/14 05:12:18;;;;;;;9.57;5.28;;;25.70;49.90;;;;;;5050561;28;20078;-74
2023/06/14 05:14:45;;;;;;;9.00;5.43;;;25.80;49.90;;;;;;5050190;28;20025;-74
2023/06/14 05:17:11;;;;;;;4.90;4.13;;;25.70;49.80;;;;;;5050290;28;20041;-74
2023/06/14 05:19:37;;;;;;;6.55;3.80;;;25.70;49.90;;;;;;5051494;28;20035;-74
2023/06/14 05:22:03;;;;;;;8.85;4.60;;;25.70;49.90;;;;;;5051575;28;20756;-74
2023/06/14 05:24:30;;;;;;;8.95;5.05;;;25.70;49.90;;;;;;5051284;28;20082;-74
2023/06/14 05:26:56;;;;;;;8.15;4.95;;;25.70;49.90;;;;;;5052044;28;20037;-74
2023/06/14 05:29:22;;;;;;;5.85;4.68;;;25.70;49.90;;;;;;5068871;28;20048;-74
2023/06/14 05:31:48;;;;;;;8.02;4.47;;;25.70;49.80;;;;;;5085266;28;20079;-74
2023/06/14 05:34:14;;;;;;;5.28;4.70;;;25.60;49.80;;;;;;5068700;28;20157;-74
2023/06/14 05:36:40;;;;;;;2.03;1.80;;;25.70;49.80;;;;;;5068323;28;20055;-72
2023/06/14 05:39:06;;;;;;;4.63;3.30;;;25.70;49.90;;;;;;5068258;28;20040;-73
2023/06/14 05:41:32;;;;;;;6.38;3.05;;;25.70;49.90;;;;;;5052186;28;20049;-74
2023/06/14 05:44:00;;;;;;;2.42;1.92;;;25.70;50.30;;;;;;5054505;28;20072;-72
2023/06/14 05:46:26;;;;;;;2.15;1.88;;;25.60;51.90;;;;;;5053210;28;20099;-72
2023/06/14 05:48:53;;;;;;;5.78;2.58;;;25.70;51.70;;;;;;5051178;28;20024;-70
2023/06/14 05:51:19;;;;;;;2.70;2.50;;;25.80;52.00;;;;;;5082891;28;20056;-71
2023/06/14 05:53:46;;;;;;;4.40;2.85;;;25.90;52.20;;;;;;5033764;28;20037;-71
2023/06/14 05:56:12;;;;;;;3.70;3.33;;;25.90;53.70;;;;;;5053341;28;20167;-70
2023/06/14 05:58:39;;;;;;;6.75;3.42;;;26.00;56.40;;;;;;5064111;28;20103;-71
2023/06/14 06:01:05;;;;;;;9.15;3.58;;;26.10;54.20;;;;;;5048567;28;20029;-70
2023/06/14 06:03:31;;;;;;;7.22;4.35;;;26.00;53.60;;;;;;5045069;28;20395;-69
2023/06/14 06:05:57;;;;;;;6.50;4.18;;;26.10;53.00;;;;;;5052314;28;20033;-68
2023/06/14 06:08:23;;;;;;;6.45;4.50;;;26.10;52.80;;;;;;5051009;28;20131;-70
2023/06/14 06:10:49;;;;;;;17.77;9.77;;;26.20;53.30;;;;;;5061502;28;20111;-68
2023/06/14 06:13:15;;;;;;;17.65;10.85;;;26.20;53.70;;;;;;5052049;28;20086;-70
2023/06/14 06:15:41;;;;;;;15.07;10.88;;;26.30;55.40;;;;;;5047570;28;20022;-71
2023/06/14 06:18:07;;;;;;;25.95;15.43;;;26.20;55.40;;;;;;5060803;28;20392;-70
2023/06/14 06:20:34;;;;;;;25.42;13.63;;;26.40;55.00;;;;;;5065280;28;20040;-71
2023/06/14 06:23:00;;;;;;;26.13;16.10;;;26.40;55.80;;;;;;5042761;28;20407;-70
2023/06/14 06:25:26;;;;;;;19.90;7.95;;;26.50;53.20;;;;;;5058844;28;20029;-70
2023/06/14 06:27:54;;;;;;;7.05;5.38;;;26.60;54.00;;;;;;5038292;28;20076;-71
2023/06/14 06:30:20;;;;;;;9.85;5.32;;;26.70;53.60;;;;;;5034338;28;20124;-70
2023/06/14 06:32:47;;;;;;;6.93;4.70;;;26.60;51.50;;;;;;5044611;28;20021;-69
2023/06/14 06:35:13;;;;;;;6.43;4.50;;;26.60;51.10;;;;;;5070212;28;20041;-71
2023/06/14 06:37:41;;;;;;;6.28;3.90;;;26.70;50.60;;;;;;5048443;28;20346;-72
2023/06/14 06:40:08;;;;;;;7.50;4.85;;;26.70;50.30;;;;;;5055444;28;20028;-73
2023/06/14 06:42:34;;;;;;;7.18;4.43;;;26.60;49.90;;;;;;5058154;28;20042;-70
2023/06/14 06:45:04;;;;;;;8.60;4.28;;;26.70;50.70;;;;;;5065150;28;20037;-72
2023/06/14 06:47:31;;;;;;;11.75;5.30;;;26.70;56.10;;;;;;5037239;28;20055;-74
2023/06/14 06:49:57;;;;;;;5.43;4.40;;;26.70;57.40;;;;;;5072111;28;20384;-69
2023/06/14 06:52:23;;;;;;;6.90;3.50;;;26.60;55.40;;;;;;5067557;28;20040;-70
2023/06/14 06:54:54;;;;;;;6.70;3.65;;;26.70;53.90;;;;;;5049528;28;20029;-71
2023/06/14 06:57:22;;;;;;;5.05;3.55;;;26.70;52.00;;;;;;5046506;28;20513;-70
2023/06/14 06:59:49;;;;;;;10.73;3.83;;;26.70;51.30;;;;;;5065793;28;20043;-69
2023/06/14 07:02:16;;;;;;;6.90;4.03;;;26.70;50.80;;;;;;5055985;28;20048;-73
2023/06/14 07:04:42;;;;;;;6.45;3.80;;;26.70;50.30;;;;;;5046983;28;20733;-72
2023/06/14 07:07:09;;;;;;;6.75;3.88;;;26.70;49.90;;;;;;5055793;28;20047;-70
2023/06/14 07:09:35;;;;;;;4.88;3.70;;;26.60;49.70;;;;;;5028398;28;20460;-70
2023/06/14 07:12:01;;;;;;;4.60;3.80;;;26.80;49.40;;;;;;5047720;28;20024;-68
2023/06/14 07:14:28;;;;;;;7.13;4.22;;;26.70;49.20;;;;;;5057528;28;20112;-71
2023/06/14 07:16:55;;;;;;;6.97;3.80;;;26.80;49.20;;;;;;5041927;28;20079;-71
2023/06/14 07:19:21;;;;;;;4.85;3.95;;;26.70;49.20;;;;;;5051817;28;20128;-71
2023/06/14 07:21:47;;;;;;;7.20;4.70;;;26.70;49.20;;;;;;5032612;28;20045;-70
2023/06/14 07:24:13;;;;;;;6.55;4.40;;;26.60;49.30;;;;;;5039991;28;20344;-70
2023/06/14 07:26:39;;;;;;;10.75;5.93;;;26.70;49.20;;;;;;5050832;28;20024;-71
2023/06/14 07:29:05;;;;;;;11.05;7.82;;;26.80;50.10;;;;;;5057163;28;20511;-69
2023/06/14 07:31:31;;;;;;;11.40;9.10;;;26.60;53.00;;;;;;5061040;28;20033;-69
2023/06/14 07:33:57;;;;;;;11.30;10.20;;;26.70;53.60;;;;;;5048794;28;20557;-70
2023/06/14 07:36:23;;;;;;;7.38;5.90;;;26.70;53.10;;;;;;5054653;28;20437;-69
2023/06/14 07:38:49;;;;;;;5.68;4.93;;;26.70;52.50;;;;;;5057373;28;20025;-70
2023/06/14 07:41:16;;;;;;;11.77;10.27;;;26.70;52.80;;;;;;5052624;28;20174;-69
2023/06/14 07:43:42;;;;;;;11.30;10.18;;;26.70;52.80;;;;;;5027617;28;20438;-72
2023/06/14 07:46:09;;;;;;;16.58;14.57;;;26.80;52.70;;;;;;5048133;28;20124;-72
2023/06/14 07:48:35;;;;;;;37.10;26.67;;;26.70;53.50;;;;;;5047352;28;20028;-75
2023/06/14 07:51:01;;;;;;;46.63;38.00;;;26.70;52.70;;;;;;5051400;28;20056;-71
2023/06/14 07:53:27;;;;;;;51.08;43.05;;;26.90;53.00;;;;;;5045662;28;20176;-71
2023/06/14 07:55:53;;;;;;;8.82;6.72;;;26.70;51.70;;;;;;5053217;28;20116;-71
2023/06/14 07:58:19;;;;;;;9.93;6.45;;;26.90;58.90;;;;;;5046895;28;20032;-72
2023/06/14 08:00:46;;;;;;;11.90;5.95;;;26.90;59.10;;;;;;5045954;28;20036;-71
2023/06/14 08:03:12;;;;;;;7.15;5.43;;;26.90;57.10;;;;;;5037837;28;20041;-80
2023/06/14 08:05:38;;;;;;;7.40;4.72;;;26.90;56.30;;;;;;5046217;28;20509;-74
2023/06/14 08:08:04;;;;;;;8.13;5.10;;;26.90;54.40;;;;;;5049738;28;20056;-74
2023/06/14 08:10:30;;;;;;;6.13;5.40;;;26.80;53.70;;;;;;5056135;28;20047;-74
2023/06/14 08:12:56;;;;;;;7.75;4.82;;;26.80;52.40;;;;;;5053698;28;20029;-74
2023/06/14 08:15:22;;;;;;;5.60;4.97;;;26.80;51.70;;;;;;5054687;28;20090;-74
2023/06/14 08:17:48;;;;;;;7.25;5.13;;;26.80;51.30;;;;;;5015689;28;20106;-74
2023/06/14 08:20:16;;;;;;;6.07;4.93;;;26.90;50.80;;;;;;5032457;28;20045;-75
2023/06/14 08:22:43;;;;;;;9.32;4.50;;;26.80;50.50;;;;;;5032619;28;20084;-75
2023/06/14 08:25:12;;;;;;;5.95;4.70;;;26.70;50.30;;;;;;5033801;28;20032;-75
2023/06/14 08:27:38;;;;;;;6.70;4.03;;;26.80;50.00;;;;;;5051984;28;20040;-74
2023/06/14 08:30:04;;;;;;;5.82;4.28;;;26.80;49.90;;;;;;5050716;28;20032;-75
2023/06/14 08:32:30;;;;;;;10.10;5.43;;;26.70;49.80;;;;;;5052031;28;20061;-74
2023/06/14 08:34:56;;;;;;;8.38;5.28;;;26.90;49.80;;;;;;5050256;28;20158;-75
2023/06/14 08:37:22;;;;;;;8.05;5.18;;;26.80;49.70;;;;;;5050569;28;20487;-75
2023/06/14 08:39:48;;;;;;;5.70;4.35;;;26.80;49.70;;;;;;5051533;28;20033;-74
2023/06/14 08:42:15;;;;;;;7.78;4.90;;;26.80;49.60;;;;;;5051390;28;20044;-74
2023/06/14 08:44:41;;;;;;;7.95;4.65;;;26.80;49.60;;;;;;5051416;28;20037;-75
2023/06/14 08:47:09;;;;;;;7.35;4.97;;;26.90;49.60;;;;;;5051386;28;20043;-74
2023/06/14 08:49:38;;;;;;;5.18;4.25;;;26.80;49.70;;;;;;5050281;28;20032;-74
2023/06/14 08:52:07;;;;;;;6.28;4.20;;;26.70;49.80;;;;;;5051406;28;20048;-74
2023/06/14 08:54:35;;;;;;;7.70;5.13;;;26.70;49.80;;;;;;5051573;28;20488;-75
2023/06/14 08:57:04;;;;;;;7.00;4.60;;;26.70;49.90;;;;;;5051622;28;20485;-74
2023/06/14 08:59:33;;;;;;;8.95;4.47;;;26.80;49.90;;;;;;5050617;28;20033;-75
2023/06/14 09:02:00;;;;;;;5.65;4.20;;;26.70;49.80;;;;;;5051478;28;20052;-74
2023/06/14 09:04:29;;;;;;;4.85;4.03;;;26.70;49.90;;;;;;5051269;28;20477;-75
2023/06/14 09:06:56;;;;;;;8.95;4.18;;;26.70;49.80;;;;;;5051581;28;20029;-75
2023/06/14 09:09:28;;;;;;;5.95;4.35;;;26.60;49.80;;;;;;5051157;28;20044;-75
2023/06/14 09:11:54;;;;;;;;;;;26.60;49.80;;;;;;5050687;28;20121;-74
2023/06/14 09:14:23;;;;;;;5.07;3.88;;;26.60;49.80;;;;;;5051407;28;20347;-74
2023/06/14 09:16:53;;;;;;;6.28;4.30;;;26.60;49.90;;;;;;5051719;28;20067;-75
2023/06/14 09:19:23;;;;;;;5.50;4.88;;;26.60;49.90;;;;;;5051657;28;20098;-75
2023/06/14 09:21:52;;;;;;;6.75;4.13;;;26.40;49.90;;;;;;5049283;28;20077;-75
2023/06/14 09:24:19;;;;;;;9.20;4.53;;;26.70;49.90;;;;;;5051492;28;20428;-75
2023/06/14 09:26:48;;;;;;;4.45;3.38;;;26.60;49.90;;;;;;5051301;28;20106;-75
2023/06/14 09:29:16;;;;;;;6.15;4.70;;;26.60;49.90;;;;;;5050269;28;20037;-75
2023/06/14 09:31:42;;;;;;;5.13;4.22;;;26.70;49.90;;;;;;5056634;28;20021;-74
2023/06/14 09:34:09;;;;;;;6.30;4.18;;;26.60;49.90;;;;;;5051169;28;20032;-74
2023/06/14 09:36:36;;;;;;;7.38;4.22;;;26.50;49.90;;;;;;5049706;28;20116;-74
2023/06/14 09:39:07;;;;;;;4.93;4.07;;;26.60;49.90;;;;;;5017369;28;20037;-74
2023/06/14 09:41:38;;;;;;;6.07;4.18;;;26.50;49.80;;;;;;5051247;28;20029;-75
2023/06/14 09:44:06;;;;;;;6.38;4.22;;;26.50;49.90;;;;;;5051109;28;20033;-75
2023/06/14 09:46:33;;;;;;;7.00;3.60;;;26.50;49.90;;;;;;5051152;28;20112;-75
2023/06/14 09:49:00;;;;;;;5.95;4.22;;;26.70;49.80;;;;;;5051075;28;20403;-75
2023/06/14 09:51:27;;;;;;;9.98;4.15;;;26.50;49.90;;;;;;5028864;28;20140;-75
2023/06/14 09:53:59;;;;;;;8.10;4.05;;;26.60;49.90;;;;;;5012324;28;20103;-77
2023/06/14 09:56:29;;;;;;;4.78;4.15;;;26.50;49.90;;;;;;5028991;28;20377;-75
2023/06/14 09:58:59;;;;;;;5.03;4.03;;;26.50;49.90;;;;;;5028862;28;20450;-75
2023/06/14 10:01:29;;;;;;;5.72;3.75;;;26.50;49.90;;;;;;5008530;28;20068;-76
2023/06/14 10:04:05;;;;;;;6.63;4.40;;;26.50;50.00;;;;;;5009157;28;20801;-75
2023/06/14 10:06:36;;;;;;;5.90;4.22;;;26.50;49.90;;;;;;4992059;28;20161;-75
2023/06/14 10:09:04;;;;;;;4.80;4.15;;;26.40;50.00;;;;;;5008876;28;20464;-75
2023/06/14 10:11:32;;;;;;;6.72;4.95;;;26.30;50.00;;;;;;5008725;28;20050;-75
2023/06/14 10:13:59;;;;;;;6.75;4.22;;;26.30;50.00;;;;;;5008661;28;20068;-75
2023/06/14 10:16:46;;;;;;;6.35;4.45;;;26.30;50.00;;;;;;5005025;28;20045;-75
2023/06/14 10:19:24;;;;;;;7.90;4.55;;;26.30;50.30;;;;;;5005040;28;20042;-76
2023/06/14 10:22:14;;;;;;;7.80;4.85;;;26.30;52.40;;;;;;5005202;28;20084;-76
2023/06/14 10:24:48;;;;;;;6.32;5.00;;;26.40;52.70;;;;;;5032148;28;20045;-76
2023/06/14 10:27:16;;;;;;;6.70;4.70;;;26.50;55.40;;;;;;5000928;28;20038;-76
2023/06/14 10:29:57;;;;;;;5.97;4.40;;;26.50;54.80;;;;;;5003867;28;20116;-77
2023/06/14 10:32:28;;;;;;;9.10;4.80;;;26.40;51.40;;;;;;4993336;28;20120;-77
2023/06/14 10:35:01;;;;;;;5.60;4.55;;;26.60;52.40;;;;;;4993635;28;20041;-75
2023/06/14 10:37:28;;;;;;;5.30;4.43;;;26.60;52.10;;;;;;5012411;28;20116;-74
2023/06/14 10:39:54;;;;;;;5.45;4.38;;;26.60;51.30;;;;;;5037211;28;20076;-78
2023/06/14 10:42:22;;;;;;;9.55;4.53;;;26.60;50.40;;;;;;5041162;28;20463;-79
2023/06/14 10:45:01;;;;;;;5.22;3.92;;;26.60;49.80;;;;;;5023419;28;20132;-79
2023/06/14 10:47:39;;;;;;;9.35;4.32;;;26.50;49.60;;;;;;5048469;28;20401;-76
2023/06/14 10:50:06;;;;;;;4.55;3.95;;;26.60;50.20;;;;;;5036131;28;20029;-77
2023/06/14 10:52:39;;;;;;;6.15;4.50;;;26.60;50.60;;;;;;5027913;28;20103;-78
2023/06/14 10:55:11;;;;;;;5.57;4.13;;;26.50;49.80;;;;;;5023744;28;20132;-78
2023/06/14 10:57:42;;;;;;;5.28;3.83;;;26.50;49.50;;;;;;5031613;28;20041;-80
2023/06/14 11:00:13;;;;;;;4.43;3.97;;;26.50;49.30;;;;;;5058418;28;20117;-77
2023/06/14 11:03:07;;;;;;;4.60;4.13;;;26.60;49.80;;;;;;5056795;28;20052;-78
2023/06/14 11:05:52;;;;;;;6.50;4.75;;;26.70;49.90;;;;;;5033822;28;20036;-79
2023/06/14 11:08:36;;;;;;;5.10;3.75;;;26.60;49.00;;;;;;5032161;28;20061;-77
2023/06/14 11:11:06;;;;;;;4.90;3.83;;;26.60;49.00;;;;;;5055295;28;20041;-75
2023/06/14 11:13:32;;;;;;;7.93;4.43;;;26.60;49.70;;;;;;5031042;28;20541;-78
2023/06/14 11:15:59;;;;;;;6.55;5.40;;;26.70;52.60;;;;;;5047158;28;20037;-80
2023/06/14 11:18:27;;;;;;;8.15;4.32;;;26.80;51.30;;;;;;5024070;28;20045;-80
2023/06/14 11:20:53;;;;;;;8.40;4.03;;;26.80;51.00;;;;;;5040825;28;20407;-80
2023/06/14 11:23:19;;;;;;;5.28;4.30;;;26.80;51.00;;;;;;5041304;28;20041;-80
2023/06/14 11:25:52;;;;;;;6.55;4.65;;;26.80;50.80;;;;;;5032173;28;20075;-82
2023/06/14 11:28:21;;;;;;;8.65;5.35;;;26.70;51.00;;;;;;5047113;28;20016;-79
2023/06/14 11:31:00;;;;;;;5.03;4.47;;;26.90;55.10;;;;;;5037526;28;20109;-75
2023/06/14 11:33:26;;;;;;;5.57;4.43;;;27.30;51.20;;;;;;5035044;28;20041;-77
2023/06/14 11:35:52;;;;;;;6.70;4.22;;;27.20;50.40;;;;;;5035937;28;20030;-77
2023/06/14 11:38:18;;;;;;;5.50;4.00;;;27.60;49.30;;;;;;5048818;28;20037;-75
2023/06/14 11:40:44;;;;;;;7.45;4.50;;;27.80;48.70;;;;;;5019174;28;20053;-74
2023/06/14 11:43:12;;;;;;;5.50;4.40;;;27.80;48.30;;;;;;5011710;28;20057;-76
2023/06/14 11:45:39;;;;;;;4.68;4.05;;;27.80;48.00;;;;;;5011055;28;20050;-76
2023/06/14 11:48:06;;;;;;;4.65;3.72;;;27.80;48.00;;;;;;5009251;28;20053;-75
2023/06/14 11:50:33;;;;;;;5.13;3.47;;;27.90;47.80;;;;;;5027498;28;20081;-75
2023/06/14 11:53:06;;;;;;;6.53;4.25;;;27.70;47.70;;;;;;5029643;28;20162;-74
2023/06/14 11:55:40;;;;;;;5.53;3.97;;;27.60;47.60;;;;;;5015625;28;20045;-74
2023/06/14 11:58:06;;;;;;;5.68;3.65;;;27.60;47.50;;;;;;5010481;28;20040;-74
2023/06/14 12:00:35;;;;;;;7.05;3.92;;;27.50;47.70;;;;;;5020745;28;20045;-75
2023/06/14 12:03:01;;;;;;;4.28;3.88;;;27.40;48.00;;;;;;5012742;28;20039;-73
2023/06/14 12:05:27;;;;;;;6.30;4.20;;;27.30;47.50;;;;;;5019072;28;20040;-76
2023/06/14 12:08:00;;;;;;;4.75;3.33;;;27.30;46.80;;;;;;5020359;28;20141;-76
2023/06/14 12:10:27;;;;;;;4.75;3.00;;;27.20;47.60;;;;;;5024857;28;20157;-74
2023/06/14 12:12:59;;;;;;;3.42;3.08;;;27.20;48.10;;;;;;5042218;28;20560;-82
2023/06/14 12:15:29;;;;;;;3.88;3.22;;;27.20;49.10;;;;;;5061132;28;20033;-74
2023/06/14 12:17:55;;;;;;;4.80;3.65;;;27.20;49.30;;;;;;5040663;28;20037;-72
2023/06/14 12:20:24;;;;;;;4.15;3.10;;;27.30;49.50;;;;;;5039167;28;20033;-73
2023/06/14 12:22:56;;;;;;;3.95;2.72;;;27.20;49.50;;;;;;5041351;28;20045;-73
2023/06/14 12:25:34;;;;;;;3.60;3.08;;;27.10;49.70;;;;;;5049383;28;20103;-72
2023/06/14 12:28:06;;;;;;;4.68;4.13;;;27.10;49.90;;;;;;5041809;28;20469;-73
2023/06/14 12:30:33;;;;;;;3.87;2.97;;;27.10;49.80;;;;;;5051354;28;20396;-74
2023/06/14 12:32:59;;;;;;;4.53;3.15;;;27.20;49.60;;;;;;5036562;28;20051;-76
2023/06/14 12:35:25;;;;;;;4.43;3.22;;;27.10;49.60;;;;;;5042976;28;20041;-73
2023/06/14 12:37:51;;;;;;;6.10;3.88;;;27.00;49.50;;;;;;5054212;28;20040;-73
2023/06/14 12:40:17;;;;;;;3.53;3.15;;;27.00;49.70;;;;;;5050004;28;20028;-73
2023/06/14 12:42:47;;;;;;;4.85;4.00;;;27.00;50.00;;;;;;5049723;28;20520;-71
2023/06/14 12:45:13;;;;;;;9.23;3.90;;;27.10;50.30;;;;;;5049534;28;20036;-77
2023/06/14 12:47:39;;;;;;;11.65;4.28;;;27.00;50.30;;;;;;5065177;28;20036;-72
2023/06/14 12:50:06;;;;;;;3.40;2.85;;;26.90;49.70;;;;;;5047649;28;20036;-71